createdAt,value
2017-08-25T00:00:34.602Z,18.8
2017-08-25T00:01:36.008Z,18.8
2017-08-25T00:02:57.520Z,18.9
2017-08-25T00:03:58.927Z,18.9
2017-08-25T00:05:20.425Z,19.0
2017-08-25T00:06:21.830Z,19.0
2017-08-25T00:07:43.358Z,19.0
2017-08-25T00:08:44.757Z,19.0
2017-08-25T00:10:06.252Z,19.0
2017-08-25T00:11:07.656Z,18.9
2017-08-25T00:12:29.156Z,19.0
2017-08-25T00:13:30.561Z,18.9
2017-08-25T00:14:52.074Z,18.8
2017-08-25T00:15:53.482Z,18.9
2017-08-25T00:17:14.976Z,18.8
2017-08-25T00:18:16.383Z,18.9
2017-08-25T00:19:37.904Z,18.9
2017-08-25T00:20:39.314Z,18.8
2017-08-25T00:22:00.811Z,18.9
2017-08-25T00:23:02.217Z,18.8
2017-08-25T00:24:23.993Z,18.9
2017-08-25T00:25:25.409Z,18.9
2017-08-25T00:26:46.934Z,18.9
2017-08-25T00:27:48.312Z,18.9
2017-08-25T00:29:09.830Z,18.8
2017-08-25T00:30:11.238Z,18.8
2017-08-25T00:31:32.737Z,18.9
2017-08-25T00:32:34.147Z,18.9
2017-08-25T00:33:55.660Z,18.8
2017-08-25T00:34:57.069Z,18.9
2017-08-25T00:36:18.563Z,18.9
2017-08-25T00:37:19.966Z,18.8
2017-08-25T00:38:41.482Z,18.8
2017-08-25T00:39:42.888Z,18.8
2017-08-25T00:41:04.381Z,18.9
2017-08-25T00:42:05.788Z,18.9
2017-08-25T00:43:27.305Z,18.9
2017-08-25T00:44:28.710Z,18.8
2017-08-25T00:45:50.204Z,18.8
2017-08-25T00:46:51.612Z,18.8
2017-08-25T00:48:13.129Z,18.9
2017-08-25T00:49:14.538Z,18.8
2017-08-25T00:50:36.032Z,18.8
2017-08-25T00:51:37.437Z,18.7
2017-08-25T00:52:58.928Z,18.8
2017-08-25T00:54:00.336Z,18.7
2017-08-25T00:55:21.854Z,18.8
2017-08-25T00:56:23.260Z,18.8
2017-08-25T00:57:44.753Z,18.8
2017-08-25T00:58:46.158Z,18.8
2017-08-25T01:00:07.675Z,18.8
2017-08-25T01:01:09.082Z,18.7
2017-08-25T01:02:30.576Z,18.7
2017-08-25T01:03:31.982Z,18.7
2017-08-25T01:04:53.497Z,18.6
2017-08-25T01:05:54.902Z,18.7
2017-08-25T01:07:16.432Z,18.6
2017-08-25T01:08:18.024Z,18.7
2017-08-25T01:09:39.546Z,18.7
2017-08-25T01:10:40.955Z,18.6
2017-08-25T01:12:02.448Z,18.6
2017-08-25T01:13:03.853Z,18.6
2017-08-25T01:14:25.375Z,18.5
2017-08-25T01:15:26.781Z,18.6
2017-08-25T01:16:48.273Z,18.5
2017-08-25T01:17:49.682Z,18.6
2017-08-25T01:19:11.200Z,18.5
2017-08-25T01:20:12.607Z,18.5
2017-08-25T01:21:34.105Z,18.5
2017-08-25T01:22:35.511Z,18.5
2017-08-25T01:23:57.027Z,18.4
2017-08-25T01:24:58.445Z,18.4
2017-08-25T01:26:19.941Z,18.4
2017-08-25T01:27:21.345Z,18.3
2017-08-25T01:28:42.862Z,18.4
2017-08-25T01:29:44.268Z,18.3
2017-08-25T01:31:05.763Z,18.2
2017-08-25T01:32:07.168Z,18.3
2017-08-25T01:33:28.680Z,18.2
2017-08-25T01:34:30.086Z,18.3
2017-08-25T01:35:51.579Z,18.1
2017-08-25T01:36:52.985Z,18.1
2017-08-25T01:38:14.481Z,18.1
2017-08-25T01:39:15.885Z,18.1
2017-08-25T01:40:37.404Z,18.1
2017-08-25T01:41:38.809Z,17.9
2017-08-25T01:43:00.303Z,17.9
2017-08-25T01:44:01.708Z,18.0
2017-08-25T01:45:23.228Z,18.0
2017-08-25T01:46:24.634Z,17.9
2017-08-25T01:47:46.126Z,17.9
2017-08-25T01:48:47.558Z,17.8
2017-08-25T01:50:09.050Z,17.9
2017-08-25T01:51:10.457Z,17.8
2017-08-25T01:52:31.952Z,17.8
2017-08-25T01:53:33.359Z,17.8
2017-08-25T01:54:55.291Z,17.7
2017-08-25T01:55:56.695Z,17.8
2017-08-25T01:57:18.218Z,17.7
2017-08-25T01:58:19.624Z,17.7
2017-08-25T01:59:41.197Z,17.6
2017-08-25T02:00:42.604Z,17.6
2017-08-25T02:02:04.633Z,17.7
2017-08-25T02:03:06.040Z,17.6
2017-08-25T02:04:28.116Z,17.6
2017-08-25T02:05:29.520Z,17.6
2017-08-25T02:06:51.071Z,17.6
2017-08-25T02:07:52.457Z,17.6
2017-08-25T02:09:14.032Z,17.6
2017-08-25T02:10:15.437Z,17.5
2017-08-25T02:11:36.947Z,17.4
2017-08-25T02:12:38.353Z,17.4
2017-08-25T02:13:59.916Z,17.5
2017-08-25T02:15:01.323Z,17.4
2017-08-25T02:16:22.849Z,17.4
2017-08-25T02:17:24.255Z,17.3
2017-08-25T02:18:45.802Z,17.4
2017-08-25T02:19:47.206Z,17.3
2017-08-25T02:21:08.768Z,17.2
2017-08-25T02:22:10.176Z,17.3
2017-08-25T02:23:31.703Z,17.3
2017-08-25T02:24:33.113Z,17.2
2017-08-25T02:25:54.672Z,17.1
2017-08-25T02:26:56.074Z,17.1
2017-08-25T02:28:17.604Z,17.1
2017-08-25T02:29:19.009Z,17.1
2017-08-25T02:30:40.574Z,17.1
2017-08-25T02:31:41.978Z,17.1
2017-08-25T02:33:04.014Z,17.2
2017-08-25T02:34:05.419Z,17.1
2017-08-25T02:35:26.985Z,17.2
2017-08-25T02:36:28.390Z,17.2
2017-08-25T02:37:49.917Z,17.2
2017-08-25T02:38:51.323Z,17.1
2017-08-25T02:40:22.844Z,17.2
2017-08-25T02:41:24.246Z,17.1
2017-08-25T02:42:45.738Z,17.1
2017-08-25T02:43:47.141Z,17.1
2017-08-25T02:45:08.655Z,17.1
2017-08-25T02:46:10.059Z,17.1
2017-08-25T02:47:31.550Z,17.1
2017-08-25T02:48:32.956Z,17.1
2017-08-25T02:49:54.469Z,17.0
2017-08-25T02:50:55.877Z,17.0
2017-08-25T02:52:17.372Z,17.0
2017-08-25T02:53:18.775Z,17.0
2017-08-25T02:54:40.293Z,16.9
2017-08-25T02:55:41.694Z,16.9
2017-08-25T02:57:03.187Z,17.0
2017-08-25T02:58:04.589Z,16.9
2017-08-25T02:59:26.104Z,16.9
2017-08-25T03:00:27.509Z,16.9
2017-08-25T03:01:49.002Z,16.8
2017-08-25T03:02:50.402Z,16.8
2017-08-25T03:04:11.899Z,16.8
2017-08-25T03:05:13.303Z,16.8
2017-08-25T03:06:34.815Z,16.8
2017-08-25T03:07:36.222Z,16.8
2017-08-25T03:08:57.713Z,16.8
2017-08-25T03:09:59.116Z,16.7
2017-08-25T03:11:20.631Z,16.8
2017-08-25T03:12:22.035Z,16.7
2017-08-25T03:13:43.525Z,16.7
2017-08-25T03:14:44.928Z,16.7
2017-08-25T03:16:06.442Z,16.8
2017-08-25T03:17:07.854Z,16.7
2017-08-25T03:18:29.345Z,16.7
2017-08-25T03:19:30.747Z,16.6
2017-08-25T03:20:52.261Z,16.6
2017-08-25T03:21:53.666Z,16.6
2017-08-25T03:23:15.160Z,16.6
2017-08-25T03:24:16.564Z,16.6
2017-08-25T03:25:38.077Z,16.6
2017-08-25T03:27:18.949Z,16.5
2017-08-25T03:28:59.807Z,16.5
2017-08-25T03:30:01.211Z,16.4
2017-08-25T03:31:22.726Z,16.4
2017-08-25T03:32:24.130Z,16.4
2017-08-25T03:33:45.621Z,16.4
2017-08-25T03:34:47.023Z,16.4
2017-08-25T03:36:08.538Z,16.3
2017-08-25T03:37:09.943Z,16.2
2017-08-25T03:38:31.438Z,16.2
2017-08-25T03:39:32.843Z,16.2
2017-08-25T03:40:54.365Z,16.2
2017-08-25T03:41:55.767Z,16.2
2017-08-25T03:43:17.260Z,16.2
2017-08-25T03:44:18.663Z,16.3
2017-08-25T03:45:40.182Z,16.2
2017-08-25T03:46:41.587Z,16.1
2017-08-25T03:48:03.081Z,16.1
2017-08-25T03:49:04.484Z,16.0
2017-08-25T03:50:25.999Z,16.1
2017-08-25T03:51:27.404Z,16.0
2017-08-25T03:52:48.939Z,16.0
2017-08-25T03:53:50.340Z,16.0
2017-08-25T03:55:11.854Z,15.9
2017-08-25T03:56:13.262Z,15.9
2017-08-25T03:57:34.763Z,15.9
2017-08-25T03:58:36.170Z,15.9
2017-08-25T03:59:59.188Z,15.9
2017-08-25T04:01:00.591Z,15.9
2017-08-25T04:02:22.089Z,15.9
2017-08-25T04:03:23.490Z,15.9
2017-08-25T04:04:45.058Z,15.8
2017-08-25T04:05:46.462Z,15.9
2017-08-25T04:07:08.087Z,15.9
2017-08-25T04:08:09.493Z,15.8
2017-08-25T04:09:30.994Z,15.8
2017-08-25T04:10:32.396Z,15.9
2017-08-25T04:11:53.937Z,15.8
2017-08-25T04:12:55.342Z,15.8
2017-08-25T04:14:16.863Z,15.8
2017-08-25T04:15:18.267Z,15.8
2017-08-25T04:16:39.834Z,15.8
2017-08-25T04:17:41.237Z,15.8
2017-08-25T04:19:02.767Z,15.8
2017-08-25T04:20:04.173Z,15.7
2017-08-25T04:21:25.737Z,15.8
2017-08-25T04:22:27.145Z,15.8
2017-08-25T04:23:48.668Z,15.7
2017-08-25T04:24:50.074Z,15.7
2017-08-25T04:26:11.638Z,15.8
2017-08-25T04:27:13.042Z,15.7
2017-08-25T04:28:34.570Z,15.7
2017-08-25T04:29:35.975Z,15.7
2017-08-25T04:30:57.540Z,15.7
2017-08-25T04:31:58.944Z,15.7
2017-08-25T04:33:20.473Z,15.7
2017-08-25T04:34:21.876Z,15.7
2017-08-25T04:35:43.440Z,15.7
2017-08-25T04:36:44.848Z,15.7
2017-08-25T04:38:06.369Z,15.6
2017-08-25T04:39:07.773Z,15.6
2017-08-25T04:40:29.855Z,15.6
2017-08-25T04:41:31.261Z,15.6
2017-08-25T04:42:52.763Z,15.6
2017-08-25T04:43:54.167Z,15.6
2017-08-25T04:45:15.760Z,15.6
2017-08-25T04:46:17.167Z,15.6
2017-08-25T04:47:38.686Z,15.7
2017-08-25T04:48:40.093Z,15.7
2017-08-25T04:50:01.639Z,15.7
2017-08-25T04:51:03.074Z,15.7
2017-08-25T04:52:24.608Z,15.7
2017-08-25T04:53:26.014Z,15.7
2017-08-25T04:54:47.540Z,15.8
2017-08-25T04:55:48.945Z,15.8
2017-08-25T04:57:10.513Z,15.9
2017-08-25T04:58:11.919Z,15.8
2017-08-25T04:59:33.440Z,15.8
2017-08-25T05:00:34.847Z,15.9
2017-08-25T05:01:56.415Z,15.9
2017-08-25T05:02:57.821Z,16.0
2017-08-25T05:04:19.343Z,16.0
2017-08-25T05:05:20.750Z,16.1
2017-08-25T05:06:42.314Z,16.1
2017-08-25T05:07:43.720Z,16.2
2017-08-25T05:09:05.245Z,16.2
2017-08-25T05:10:06.653Z,16.3
2017-08-25T05:11:28.215Z,16.4
2017-08-25T05:12:29.625Z,16.5
2017-08-25T05:13:51.626Z,16.6
2017-08-25T05:14:53.033Z,16.6
2017-08-25T05:16:14.628Z,16.6
2017-08-25T05:17:16.036Z,16.7
2017-08-25T05:18:37.874Z,16.8
2017-08-25T05:19:39.276Z,16.9
2017-08-25T05:21:00.839Z,16.9
2017-08-25T05:22:02.267Z,16.9
2017-08-25T05:23:24.281Z,17.0
2017-08-25T05:24:25.751Z,17.1
2017-08-25T05:25:47.355Z,17.1
2017-08-25T05:26:48.872Z,17.0
2017-08-25T05:28:10.388Z,17.1
2017-08-25T05:29:11.797Z,17.1
2017-08-25T05:30:43.357Z,17.0
2017-08-25T05:31:44.763Z,17.1
2017-08-25T05:33:06.260Z,17.1
2017-08-25T05:34:07.669Z,17.1
2017-08-25T05:35:29.161Z,16.9
2017-08-25T05:36:30.569Z,17.0
2017-08-25T05:37:52.086Z,16.8
2017-08-25T05:38:53.497Z,16.8
2017-08-25T05:40:14.990Z,16.8
2017-08-25T05:41:16.398Z,16.8
2017-08-25T05:42:37.916Z,16.8
2017-08-25T05:43:39.322Z,16.9
2017-08-25T05:45:00.820Z,17.1
2017-08-25T05:46:02.225Z,17.2
2017-08-25T05:47:23.749Z,17.4
2017-08-25T05:48:25.158Z,17.4
2017-08-25T05:49:46.652Z,17.5
2017-08-25T05:50:48.061Z,17.4
2017-08-25T05:52:09.586Z,17.4
2017-08-25T05:53:10.993Z,17.6
2017-08-25T05:54:32.489Z,17.7
2017-08-25T05:55:33.904Z,17.7
2017-08-25T05:56:55.414Z,17.8
2017-08-25T05:57:56.824Z,17.8
2017-08-25T05:59:18.328Z,17.8
2017-08-25T06:00:19.732Z,17.8
2017-08-25T06:01:41.742Z,18.0
2017-08-25T06:02:43.150Z,18.0
2017-08-25T06:04:04.651Z,17.9
2017-08-25T06:05:06.059Z,18.0
2017-08-25T06:06:27.587Z,18.0
2017-08-25T06:07:28.994Z,18.2
2017-08-25T06:08:50.533Z,18.2
2017-08-25T06:09:51.940Z,18.4
2017-08-25T06:11:13.956Z,18.6
2017-08-25T06:12:15.367Z,18.8
2017-08-25T06:13:36.903Z,19.1
2017-08-25T06:14:38.306Z,19.3
2017-08-25T06:15:59.813Z,19.4
2017-08-25T06:17:01.221Z,19.5
2017-08-25T06:18:22.743Z,19.6
2017-08-25T06:19:24.155Z,19.6
2017-08-25T06:20:45.657Z,19.7
2017-08-25T06:21:47.067Z,19.7
2017-08-25T06:23:08.588Z,19.9
2017-08-25T06:24:10.000Z,20.0
2017-08-25T06:25:31.504Z,20.1
2017-08-25T06:26:32.913Z,20.1
2017-08-25T06:27:54.931Z,20.2
2017-08-25T06:28:56.342Z,20.3
2017-08-25T06:30:17.846Z,20.5
2017-08-25T06:31:19.256Z,20.7
2017-08-25T06:32:40.780Z,20.9
2017-08-25T06:33:42.187Z,21.0
2017-08-25T06:35:03.694Z,21.3
2017-08-25T06:36:05.103Z,21.5
2017-08-25T06:37:26.629Z,21.7
2017-08-25T06:38:28.041Z,21.8
2017-08-25T06:39:50.042Z,21.7
2017-08-25T06:40:51.454Z,21.8
2017-08-25T06:42:12.981Z,21.9
2017-08-25T06:43:14.397Z,22.0
2017-08-25T06:44:35.907Z,22.0
2017-08-25T06:45:37.363Z,22.2
2017-08-25T06:46:58.872Z,22.0
2017-08-25T06:48:00.284Z,21.8
2017-08-25T06:49:21.796Z,21.7
2017-08-25T06:50:23.202Z,21.7
2017-08-25T06:51:44.731Z,21.6
2017-08-25T06:52:46.144Z,21.4
2017-08-25T06:54:07.647Z,21.3
2017-08-25T06:55:09.060Z,21.2
2017-08-25T06:56:30.814Z,21.1
2017-08-25T06:57:32.225Z,20.9
2017-08-25T06:58:53.734Z,20.9
2017-08-25T06:59:55.143Z,20.8
2017-08-25T07:01:16.653Z,20.8
2017-08-25T07:02:18.056Z,20.8
2017-08-25T07:03:39.584Z,20.9
2017-08-25T07:04:40.997Z,20.9
2017-08-25T07:06:02.931Z,20.9
2017-08-25T07:07:04.353Z,21.0
2017-08-25T07:08:25.879Z,20.9
2017-08-25T07:09:27.290Z,20.8
2017-08-25T07:10:48.794Z,20.9
2017-08-25T07:11:50.205Z,20.9
2017-08-25T07:13:12.222Z,20.9
2017-08-25T07:14:13.632Z,20.9
2017-08-25T07:15:35.137Z,20.8
2017-08-25T07:16:36.548Z,20.7
2017-08-25T07:17:58.071Z,20.7
2017-08-25T07:18:59.484Z,20.7
2017-08-25T07:20:20.996Z,20.6
2017-08-25T07:22:01.892Z,20.5
2017-08-25T07:23:43.265Z,20.5
2017-08-25T07:25:24.632Z,20.5
2017-08-25T07:26:26.044Z,20.5
2017-08-25T07:27:47.571Z,20.4
2017-08-25T07:28:48.980Z,20.4
2017-08-25T07:30:10.484Z,20.5
2017-08-25T07:31:11.894Z,20.5
2017-08-25T07:32:33.417Z,20.4
2017-08-25T07:33:34.829Z,20.6
2017-08-25T07:34:56.326Z,20.4
2017-08-25T07:35:57.740Z,20.5
2017-08-25T07:37:19.267Z,20.4
2017-08-25T07:38:20.675Z,20.5
2017-08-25T07:39:42.181Z,20.5
2017-08-25T07:40:43.590Z,20.6
2017-08-25T07:42:05.114Z,20.6
2017-08-25T07:43:06.525Z,20.6
2017-08-25T07:44:28.030Z,20.7
2017-08-25T07:45:29.440Z,20.6
2017-08-25T07:46:50.944Z,20.7
2017-08-25T07:47:52.357Z,20.7
2017-08-25T07:49:13.876Z,20.7
2017-08-25T07:50:15.288Z,20.9
2017-08-25T07:51:36.791Z,21.1
2017-08-25T07:52:38.200Z,21.2
2017-08-25T07:53:59.735Z,21.3
2017-08-25T07:55:01.142Z,21.3
2017-08-25T07:56:22.657Z,21.4
2017-08-25T07:57:24.067Z,21.6
2017-08-25T07:58:46.084Z,21.7
2017-08-25T07:59:47.494Z,21.8
2017-08-25T08:01:09.001Z,21.9
2017-08-25T08:02:10.411Z,22.0
2017-08-25T08:03:33.442Z,22.1
2017-08-25T08:04:34.849Z,22.0
2017-08-25T08:05:56.358Z,21.9
2017-08-25T08:06:57.769Z,21.8
2017-08-25T08:08:19.800Z,21.7
2017-08-25T08:09:21.212Z,21.6
2017-08-25T08:10:42.724Z,21.7
2017-08-25T08:11:44.134Z,21.9
2017-08-25T08:13:05.666Z,22.0
2017-08-25T08:14:07.076Z,22.0
2017-08-25T08:15:28.580Z,21.9
2017-08-25T08:16:29.994Z,22.0
2017-08-25T08:17:51.519Z,22.1
2017-08-25T08:18:52.929Z,22.2
2017-08-25T08:20:14.438Z,22.2
2017-08-25T08:21:15.850Z,22.1
2017-08-25T08:22:37.372Z,22.3
2017-08-25T08:23:38.785Z,22.3
2017-08-25T08:25:00.295Z,22.4
2017-08-25T08:26:01.706Z,22.5
2017-08-25T08:27:23.240Z,22.6
2017-08-25T08:28:24.653Z,22.6
2017-08-25T08:29:46.158Z,22.7
2017-08-25T08:30:47.576Z,22.8
2017-08-25T08:32:09.072Z,23.0
2017-08-25T08:33:10.484Z,23.2
2017-08-25T08:34:33.507Z,23.1
2017-08-25T08:35:34.918Z,23.0
2017-08-25T08:36:56.424Z,23.0
2017-08-25T08:37:57.836Z,23.0
2017-08-25T08:39:20.854Z,23.0
2017-08-25T08:40:22.266Z,23.0
2017-08-25T08:41:43.776Z,23.2
2017-08-25T08:42:45.186Z,23.2
2017-08-25T08:44:06.712Z,23.0
2017-08-25T08:45:08.123Z,22.9
2017-08-25T08:46:30.119Z,22.9
2017-08-25T08:47:31.534Z,23.0
2017-08-25T08:48:53.062Z,22.9
2017-08-25T08:49:54.473Z,22.8
2017-08-25T08:51:15.981Z,22.7
2017-08-25T08:52:17.385Z,22.7
2017-08-25T08:53:38.911Z,22.7
2017-08-25T08:54:40.323Z,22.6
2017-08-25T08:56:01.824Z,22.7
2017-08-25T08:57:03.235Z,22.7
2017-08-25T08:58:25.253Z,22.7
2017-08-25T08:59:26.665Z,22.6
2017-08-25T09:00:48.171Z,22.3
2017-08-25T09:01:49.582Z,22.5
2017-08-25T09:03:11.106Z,22.4
2017-08-25T09:04:12.517Z,22.2
2017-08-25T09:05:34.021Z,22.2
2017-08-25T09:06:35.434Z,22.3
2017-08-25T09:07:56.958Z,22.4
2017-08-25T09:08:58.379Z,22.5
2017-08-25T09:10:21.375Z,22.4
2017-08-25T09:11:22.785Z,22.4
2017-08-25T09:12:44.291Z,22.5
2017-08-25T09:13:45.701Z,22.6
2017-08-25T09:15:07.222Z,22.5
2017-08-25T09:16:08.639Z,22.6
2017-08-25T09:17:30.398Z,22.7
2017-08-25T09:18:31.815Z,22.7
2017-08-25T09:19:53.832Z,22.9
2017-08-25T09:20:55.243Z,22.9
2017-08-25T09:22:17.375Z,22.9
2017-08-25T09:23:18.786Z,22.9
2017-08-25T09:24:40.325Z,23.1
2017-08-25T09:25:41.740Z,22.9
2017-08-25T09:27:03.248Z,22.9
2017-08-25T09:28:04.663Z,22.9
2017-08-25T09:29:26.183Z,22.9
2017-08-25T09:30:27.596Z,23.1
2017-08-25T09:31:49.102Z,23.3
2017-08-25T09:32:50.568Z,23.3
2017-08-25T09:34:12.094Z,23.5
2017-08-25T09:35:13.505Z,23.5
2017-08-25T09:36:35.015Z,23.5
2017-08-25T09:37:36.499Z,23.3
2017-08-25T09:38:58.029Z,23.5
2017-08-25T09:39:59.442Z,23.6
2017-08-25T09:41:21.440Z,23.8
2017-08-25T09:42:22.851Z,23.8
2017-08-25T09:43:44.377Z,23.8
2017-08-25T09:44:45.789Z,23.9
2017-08-25T09:46:07.299Z,23.9
2017-08-25T09:47:08.711Z,23.7
2017-08-25T09:48:31.750Z,23.8
2017-08-25T09:49:33.161Z,23.7
2017-08-25T09:50:54.666Z,23.5
2017-08-25T09:51:56.078Z,23.6
2017-08-25T09:53:17.611Z,23.6
2017-08-25T09:54:19.021Z,23.3
2017-08-25T09:55:40.532Z,23.3
2017-08-25T09:56:41.943Z,23.4
2017-08-25T09:58:03.449Z,23.3
2017-08-25T09:59:04.859Z,23.2
2017-08-25T10:00:26.987Z,23.1
2017-08-25T10:01:28.410Z,23.1
2017-08-25T10:02:49.941Z,23.3
2017-08-25T10:03:51.377Z,23.3
2017-08-25T10:05:12.925Z,23.3
2017-08-25T10:06:14.339Z,23.4
2017-08-25T10:07:36.669Z,23.5
2017-08-25T10:08:38.081Z,23.5
2017-08-25T10:09:59.695Z,23.7
2017-08-25T10:11:01.106Z,23.7
2017-08-25T10:12:22.618Z,23.6
2017-08-25T10:13:24.032Z,23.5
2017-08-25T10:14:46.049Z,23.5
2017-08-25T10:15:47.460Z,23.5
2017-08-25T10:17:09.589Z,23.3
2017-08-25T10:18:11.307Z,23.4
2017-08-25T10:19:33.824Z,23.3
2017-08-25T10:20:35.230Z,23.5
2017-08-25T10:21:58.765Z,23.6
2017-08-25T14:23:29.026Z,26.1
2017-08-25T14:24:30.444Z,26.1
2017-08-25T14:25:52.043Z,26.1
2017-08-25T14:26:53.466Z,26.2
2017-08-25T14:28:15.565Z,26.3
2017-08-25T14:29:16.982Z,26.4
2017-08-25T14:30:38.515Z,26.4
2017-08-25T14:31:39.930Z,26.2
2017-08-25T14:33:01.486Z,26.4
2017-08-25T14:34:02.900Z,26.4
2017-08-25T14:35:24.417Z,26.4
2017-08-25T14:36:25.833Z,26.4
2017-08-25T14:37:47.388Z,26.3
2017-08-25T14:38:48.811Z,26.1
2017-08-25T14:40:11.854Z,26.2
2017-08-25T14:41:52.850Z,26.2
2017-08-25T14:42:54.266Z,26.3
2017-08-25T14:44:15.873Z,26.2
2017-08-25T14:45:17.292Z,26.3
2017-08-25T14:46:40.380Z,26.2
2017-08-25T14:47:41.798Z,26.2
2017-08-25T14:49:03.314Z,26.3
2017-08-25T14:50:04.731Z,26.3
2017-08-25T14:51:26.282Z,26.2
2017-08-25T14:52:27.699Z,26.3
2017-08-25T14:53:49.215Z,26.4
2017-08-25T14:54:50.631Z,26.3
2017-08-25T14:56:12.182Z,26.2
2017-08-25T14:57:13.716Z,26.3
2017-08-25T14:58:35.322Z,26.2
2017-08-25T14:59:36.738Z,26.3
2017-08-25T15:00:58.271Z,26.3
2017-08-25T15:01:59.688Z,26.4
2017-08-25T15:03:22.794Z,26.4
2017-08-25T15:04:24.216Z,26.4
2017-08-25T15:05:45.812Z,26.5
2017-08-25T15:06:47.228Z,26.4
2017-08-25T15:08:08.782Z,26.4
2017-08-25T15:09:10.197Z,26.4
2017-08-25T15:10:31.814Z,26.4
2017-08-25T15:11:33.233Z,26.5
2017-08-25T15:12:54.782Z,26.5
2017-08-25T15:13:56.223Z,26.5
2017-08-25T15:15:17.717Z,26.5
2017-08-25T15:16:19.134Z,26.4
2017-08-25T15:17:40.686Z,26.4
2017-08-25T15:18:42.103Z,26.5
2017-08-25T15:20:03.774Z,26.6
2017-08-25T15:21:05.189Z,26.6
2017-08-25T15:22:26.797Z,26.6
2017-08-25T15:23:28.220Z,26.7
2017-08-25T15:24:49.826Z,26.7
2017-08-25T15:25:51.253Z,26.7
2017-08-25T15:27:12.796Z,26.8
2017-08-25T15:28:14.214Z,26.8
2017-08-25T15:29:35.839Z,26.8
2017-08-25T15:30:37.271Z,26.7
2017-08-25T15:31:59.414Z,26.5
2017-08-25T15:33:00.833Z,26.5
2017-08-25T15:34:22.447Z,26.4
2017-08-25T15:35:23.867Z,26.4
2017-08-25T15:36:45.929Z,26.4
2017-08-25T15:37:47.355Z,26.4
2017-08-25T15:39:08.966Z,26.4
2017-08-25T15:40:10.382Z,26.3
2017-08-25T15:41:31.938Z,26.3
2017-08-25T15:42:33.332Z,26.2
2017-08-25T15:43:54.890Z,26.2
2017-08-25T15:44:56.305Z,26.1
2017-08-25T15:46:18.329Z,26.1
2017-08-25T15:47:19.761Z,26.1
2017-08-25T15:48:41.301Z,26.1
2017-08-25T15:49:42.718Z,26.0
2017-08-25T15:51:04.331Z,26.1
2017-08-25T15:52:05.760Z,25.9
2017-08-25T15:53:27.337Z,25.9
2017-08-25T15:54:28.753Z,25.9
2017-08-25T15:55:50.337Z,25.9
2017-08-25T15:56:51.754Z,25.8
2017-08-25T15:58:13.305Z,25.8
2017-08-25T15:59:14.720Z,25.8
2017-08-25T16:00:36.340Z,25.6
2017-08-25T16:01:37.755Z,25.7
2017-08-25T16:02:59.310Z,25.7
2017-08-25T16:04:00.728Z,25.8
2017-08-25T16:05:22.344Z,25.8
2017-08-25T16:06:23.761Z,25.7
2017-08-25T16:07:45.314Z,25.8
2017-08-25T16:08:46.736Z,25.8
2017-08-25T16:10:08.348Z,25.7
2017-08-25T16:11:09.764Z,25.7
2017-08-25T16:12:31.321Z,25.6
2017-08-25T16:13:32.736Z,25.6
2017-08-25T16:14:54.351Z,25.6
2017-08-25T16:15:55.768Z,25.6
2017-08-25T16:17:17.318Z,25.5
2017-08-25T16:18:18.735Z,25.5
2017-08-25T16:19:40.253Z,25.6
2017-08-25T16:20:41.669Z,25.6
2017-08-25T16:22:03.225Z,25.7
2017-08-25T16:23:04.640Z,25.6
2017-08-25T16:24:26.668Z,25.6
2017-08-25T16:25:28.084Z,25.7
2017-08-25T16:26:49.619Z,25.6
2017-08-25T16:27:51.032Z,25.5
2017-08-25T16:29:12.589Z,25.6
2017-08-25T16:30:14.005Z,25.6
2017-08-25T16:31:36.034Z,25.6
2017-08-25T16:32:37.452Z,25.6
2017-08-25T16:33:59.003Z,25.7
2017-08-25T16:35:00.417Z,25.7
2017-08-25T16:36:22.035Z,25.7
2017-08-25T16:37:23.452Z,25.8
2017-08-25T16:38:45.028Z,25.6
2017-08-25T16:39:46.423Z,25.6
2017-08-25T16:41:08.041Z,25.5
2017-08-25T16:42:09.457Z,25.5
2017-08-25T16:43:31.010Z,25.5
2017-08-25T16:44:32.426Z,25.4
2017-08-25T16:45:54.043Z,25.3
2017-08-25T16:46:55.478Z,25.3
2017-08-25T16:48:17.015Z,25.2
2017-08-25T16:49:18.429Z,25.1
2017-08-25T16:50:39.948Z,25.2
2017-08-25T16:51:41.366Z,25.2
2017-08-25T16:53:02.915Z,25.3
2017-08-25T16:54:04.330Z,25.3
2017-08-25T16:55:26.359Z,25.1
2017-08-25T16:56:27.774Z,25.1
2017-08-25T16:57:49.328Z,25.1
2017-08-25T16:58:50.743Z,25.1
2017-08-25T17:00:12.363Z,25.0
2017-08-25T17:01:13.777Z,25.1
2017-08-25T17:02:35.332Z,25.0
2017-08-25T17:03:36.754Z,25.0
2017-08-25T17:04:58.365Z,25.0
2017-08-25T17:05:59.780Z,24.9
2017-08-25T17:07:21.314Z,24.9
2017-08-25T17:08:22.731Z,25.0
2017-08-25T17:09:44.288Z,25.0
2017-08-25T17:10:45.703Z,25.0
2017-08-25T17:12:07.320Z,25.0
2017-08-25T17:13:08.733Z,25.1
2017-08-25T17:14:30.801Z,25.1
2017-08-25T17:15:32.216Z,25.1
2017-08-25T17:16:53.739Z,25.2
2017-08-25T17:17:55.151Z,25.2
2017-08-25T17:19:16.705Z,25.2
2017-08-25T17:20:18.119Z,25.2
2017-08-25T17:21:39.636Z,25.2
2017-08-25T17:22:41.051Z,25.2
2017-08-25T17:24:02.607Z,25.2
2017-08-25T17:25:04.019Z,25.2
2017-08-25T17:26:26.053Z,25.2
2017-08-25T17:27:27.466Z,25.1
2017-08-25T17:28:49.020Z,25.1
2017-08-25T17:29:50.435Z,25.1
2017-08-25T17:31:12.053Z,25.0
2017-08-25T17:32:13.466Z,24.9
2017-08-25T17:33:35.020Z,24.8
2017-08-25T17:34:36.431Z,24.8
2017-08-25T17:35:57.955Z,24.7
2017-08-25T17:36:59.370Z,24.7
2017-08-25T17:38:20.925Z,24.8
2017-08-25T17:39:22.337Z,24.8
2017-08-25T17:40:43.954Z,24.7
2017-08-25T17:41:45.367Z,24.7
2017-08-25T17:43:06.925Z,24.7
2017-08-25T17:44:08.341Z,24.7
2017-08-25T17:45:29.861Z,24.6
2017-08-25T17:46:31.276Z,24.7
2017-08-25T17:48:02.807Z,24.6
2017-08-25T17:49:04.213Z,24.5
2017-08-25T17:50:25.722Z,24.5
2017-08-25T17:51:27.134Z,24.6
2017-08-25T17:52:48.642Z,24.5
2017-08-25T17:53:50.074Z,24.5
2017-08-25T17:55:11.578Z,24.4
2017-08-25T17:56:12.990Z,24.4
2017-08-25T17:57:34.492Z,24.5
2017-08-25T17:58:35.905Z,24.5
2017-08-25T17:59:57.428Z,24.5
2017-08-25T18:00:58.841Z,24.4
2017-08-25T18:02:20.345Z,24.4
2017-08-25T18:03:21.758Z,24.3
2017-08-25T18:04:43.282Z,24.3
2017-08-25T18:05:44.693Z,24.2
2017-08-25T18:07:06.196Z,24.1
2017-08-25T18:08:07.605Z,24.1
2017-08-25T18:09:29.127Z,24.0
2017-08-25T18:10:30.541Z,24.0
2017-08-25T18:11:52.063Z,23.9
2017-08-25T18:12:53.473Z,23.8
2017-08-25T18:14:14.998Z,23.8
2017-08-25T18:15:16.410Z,23.8
2017-08-25T18:16:37.909Z,23.7
2017-08-25T18:17:39.322Z,23.7
2017-08-25T18:19:00.846Z,23.7
2017-08-25T18:20:02.256Z,23.8
2017-08-25T18:21:23.756Z,23.7
2017-08-25T18:22:25.167Z,23.7
2017-08-25T18:23:46.753Z,23.7
2017-08-25T18:24:48.162Z,23.7
2017-08-25T18:26:09.663Z,23.6
2017-08-25T18:27:11.076Z,23.6
2017-08-25T18:28:32.599Z,23.5
2017-08-25T18:29:34.010Z,23.5
2017-08-25T18:30:55.506Z,23.5
2017-08-25T18:31:56.921Z,23.5
2017-08-25T18:33:18.435Z,23.5
2017-08-25T18:34:19.848Z,23.5
2017-08-25T18:35:41.347Z,23.5
2017-08-25T18:36:42.757Z,23.4
2017-08-25T18:38:04.298Z,23.3
2017-08-25T18:39:05.765Z,23.2
2017-08-25T18:40:27.282Z,23.3
2017-08-25T18:41:28.714Z,23.3
2017-08-25T18:42:50.190Z,23.3
2017-08-25T18:43:51.602Z,23.2
2017-08-25T18:45:13.502Z,23.3
2017-08-25T18:46:14.915Z,23.3
2017-08-25T18:47:36.415Z,23.2
2017-08-25T18:48:37.824Z,23.2
2017-08-25T18:49:59.344Z,23.3
2017-08-25T18:51:00.755Z,23.2
2017-08-25T18:52:22.246Z,23.3
2017-08-25T18:53:23.656Z,23.2
2017-08-25T18:54:45.173Z,23.3
2017-08-25T18:55:46.585Z,23.2
2017-08-25T18:57:08.079Z,23.2
2017-08-25T18:58:09.487Z,23.1
2017-08-25T18:59:31.007Z,23.1
2017-08-25T19:00:32.416Z,23.0
2017-08-25T19:01:53.917Z,23.1
2017-08-25T19:02:55.324Z,23.1
2017-08-25T19:04:16.842Z,23.0
2017-08-25T19:05:18.250Z,22.9
2017-08-25T19:06:39.748Z,22.9
2017-08-25T19:07:41.154Z,22.9
2017-08-25T19:09:02.676Z,22.9
2017-08-25T19:10:04.084Z,22.9
2017-08-25T19:11:25.587Z,22.9
2017-08-25T19:12:26.994Z,22.8
2017-08-25T19:13:48.514Z,22.7
2017-08-25T19:14:49.923Z,22.7
2017-08-25T19:16:11.416Z,22.7
2017-08-25T19:17:12.824Z,22.6
2017-08-25T19:18:34.326Z,22.7
2017-08-25T19:19:35.734Z,22.7
2017-08-25T19:20:57.253Z,22.6
2017-08-25T19:21:58.661Z,22.5
2017-08-25T19:23:20.159Z,22.4
2017-08-25T19:24:21.566Z,22.3
2017-08-25T19:25:43.166Z,22.4
2017-08-25T19:26:44.571Z,22.3
2017-08-25T19:28:06.066Z,22.2
2017-08-25T19:29:07.475Z,22.3
2017-08-25T19:30:28.991Z,22.3
2017-08-25T19:31:30.400Z,22.2
2017-08-25T19:32:51.899Z,22.3
2017-08-25T19:33:53.305Z,22.2
2017-08-25T19:35:14.828Z,22.2
2017-08-25T19:36:16.234Z,22.2
2017-08-25T19:37:37.744Z,22.2
2017-08-25T19:38:39.151Z,22.2
2017-08-25T19:40:00.664Z,22.2
2017-08-25T19:41:02.071Z,22.2
2017-08-25T19:42:23.570Z,22.2
2017-08-25T19:43:24.980Z,22.1
2017-08-25T19:44:46.501Z,22.1
2017-08-25T19:45:47.909Z,22.0
2017-08-25T19:47:10.034Z,22.0
2017-08-25T19:48:11.442Z,22.0
2017-08-25T19:49:32.960Z,22.0
2017-08-25T19:50:34.371Z,22.0
2017-08-25T19:51:55.861Z,22.0
2017-08-25T19:52:57.271Z,22.0
2017-08-25T19:54:18.791Z,21.9
2017-08-25T19:55:20.201Z,21.8